createdAt,value
2022-10-25T00:01:36.949Z,12.90
2022-10-25T00:04:04.553Z,13.02
2022-10-25T00:06:31.916Z,13.07
2022-10-25T00:09:00.873Z,12.94
2022-10-25T00:11:30.121Z,13.06
2022-10-25T00:14:00.032Z,13.09
2022-10-25T00:16:28.945Z,12.97
2022-10-25T00:18:56.304Z,13.22
2022-10-25T00:21:24.120Z,13.04
2022-10-25T00:23:51.964Z,13.06
2022-10-25T00:26:21.226Z,13.09
2022-10-25T00:28:48.673Z,13.23
2022-10-25T00:31:17.344Z,13.14
2022-10-25T00:33:45.433Z,13.20
2022-10-25T00:36:14.117Z,13.14
2022-10-25T00:38:41.466Z,13.16
2022-10-25T00:41:09.888Z,13.16
2022-10-25T00:43:40.441Z,13.14
2022-10-25T00:46:12.279Z,13.05
2022-10-25T00:48:39.814Z,13.03
2022-10-25T00:51:07.265Z,13.12
2022-10-25T00:53:36.249Z,13.15
2022-10-25T00:56:05.292Z,13.12
2022-10-25T00:58:35.376Z,13.11
2022-10-25T01:01:05.442Z,13.11
2022-10-25T01:03:32.948Z,13.22
2022-10-25T01:06:00.671Z,13.23
2022-10-25T01:08:28.070Z,13.34
2022-10-25T01:10:55.393Z,13.19
2022-10-25T01:13:22.932Z,13.27
2022-10-25T01:15:58.769Z,13.28
2022-10-25T01:18:35.537Z,13.20
2022-10-25T01:21:31.945Z,13.25
2022-10-25T01:24:16.076Z,13.32
2022-10-25T01:27:16.782Z,13.35
2022-10-25T01:30:12.221Z,13.38
2022-10-25T01:32:43.420Z,13.30
2022-10-25T01:35:17.457Z,13.25
2022-10-25T01:37:54.798Z,13.29
2022-10-25T01:40:24.871Z,13.32
2022-10-25T01:42:59.559Z,13.49
2022-10-25T01:45:29.547Z,13.48
2022-10-25T01:48:00.785Z,13.41
2022-10-25T01:50:30.892Z,13.44
2022-10-25T01:52:58.270Z,13.48
2022-10-25T01:55:28.851Z,13.40
2022-10-25T01:58:08.788Z,13.45
2022-10-25T02:00:42.214Z,13.36
2022-10-25T02:03:22.484Z,13.34
2022-10-25T02:06:01.036Z,13.32
2022-10-25T02:08:34.453Z,13.22
2022-10-25T02:11:07.378Z,13.34
2022-10-25T02:13:43.780Z,13.44
2022-10-25T02:16:13.340Z,13.53
2022-10-25T02:18:45.210Z,13.47
2022-10-25T02:21:13.560Z,13.53
2022-10-25T02:23:41.521Z,13.45
2022-10-25T02:26:10.674Z,13.50
2022-10-25T02:28:39.350Z,13.43
2022-10-25T02:31:09.621Z,13.73
2022-10-25T02:33:39.196Z,13.70
2022-10-25T02:36:14.552Z,13.66
2022-10-25T02:38:42.800Z,13.38
2022-10-25T02:41:10.357Z,13.50
2022-10-25T02:43:37.709Z,13.64
2022-10-25T02:46:08.474Z,13.57
2022-10-25T02:48:36.080Z,13.44
2022-10-25T02:51:03.633Z,13.51
2022-10-25T02:53:33.059Z,13.68
2022-10-25T02:56:01.752Z,13.59
2022-10-25T02:58:31.578Z,13.59
2022-10-25T03:00:59.621Z,13.70
2022-10-25T03:03:27.582Z,13.75
2022-10-25T03:05:55.099Z,13.71
2022-10-25T03:08:22.694Z,13.67
2022-10-25T03:10:51.706Z,13.80
2022-10-25T03:13:19.092Z,13.84
2022-10-25T03:15:46.825Z,13.71
2022-10-25T03:18:15.184Z,13.78
2022-10-25T03:20:42.842Z,13.74
2022-10-25T03:23:10.462Z,13.62
2022-10-25T03:25:37.968Z,13.71
2022-10-25T03:28:07.134Z,13.65
2022-10-25T03:30:35.209Z,13.67
2022-10-25T03:33:02.767Z,13.72
2022-10-25T03:35:30.138Z,13.60
2022-10-25T03:37:57.465Z,13.67
2022-10-25T03:40:24.872Z,13.74
2022-10-25T03:42:52.272Z,13.70
2022-10-25T03:45:21.217Z,13.67
2022-10-25T03:47:48.856Z,13.65
2022-10-25T03:50:16.565Z,13.56
2022-10-25T03:52:43.956Z,13.66
2022-10-25T03:55:11.434Z,13.63
2022-10-25T03:57:38.757Z,13.74
2022-10-25T04:00:06.810Z,13.72
2022-10-25T04:02:40.340Z,13.78
2022-10-25T04:05:08.341Z,13.86
2022-10-25T04:07:35.655Z,13.72
2022-10-25T04:10:03.049Z,13.92
2022-10-25T04:12:30.390Z,13.70
2022-10-25T04:14:57.749Z,13.58
2022-10-25T04:17:25.124Z,13.81
2022-10-25T04:19:53.773Z,13.61
2022-10-25T04:22:21.093Z,13.62
2022-10-25T04:24:48.416Z,13.58
2022-10-25T04:27:15.751Z,13.72
2022-10-25T04:29:43.082Z,13.77
2022-10-25T04:32:10.561Z,13.53
2022-10-25T04:34:37.966Z,13.74
2022-10-25T04:37:06.648Z,13.76
2022-10-25T04:39:34.085Z,13.76
2022-10-25T04:42:01.436Z,13.65
2022-10-25T04:44:31.088Z,13.51
2022-10-25T04:46:58.397Z,13.56
2022-10-25T04:49:25.757Z,13.42
2022-10-25T04:51:53.084Z,13.38
2022-10-25T04:54:21.717Z,13.24
2022-10-25T04:56:49.047Z,13.44
2022-10-25T04:59:16.372Z,13.23
2022-10-25T05:01:43.792Z,13.30
2022-10-25T05:04:11.248Z,13.50
2022-10-25T05:06:38.593Z,13.45
2022-10-25T05:09:05.933Z,13.49
2022-10-25T05:11:34.619Z,13.45
2022-10-25T05:14:02.012Z,13.19
2022-10-25T05:16:29.415Z,13.23
2022-10-25T05:18:56.730Z,13.26
2022-10-25T05:21:28.281Z,13.22
2022-10-25T05:24:00.507Z,13.47
2022-10-25T05:26:30.266Z,13.56
2022-10-25T05:28:59.263Z,13.51
2022-10-25T05:31:27.701Z,13.51
2022-10-25T05:33:57.600Z,13.50
2022-10-25T05:36:25.249Z,13.57
2022-10-25T05:38:52.853Z,13.39
2022-10-25T05:41:20.483Z,13.41
2022-10-25T05:43:47.930Z,13.46
2022-10-25T05:46:21.703Z,13.30
2022-10-25T05:48:50.037Z,13.32
2022-10-25T05:51:33.343Z,13.29
2022-10-25T05:54:02.569Z,13.35
2022-10-25T05:56:31.291Z,13.44
2022-10-25T05:58:58.876Z,13.32
2022-10-25T06:01:27.813Z,13.29
2022-10-25T06:03:56.342Z,13.29
2022-10-25T06:06:24.320Z,13.26
2022-10-25T06:08:56.743Z,13.40
2022-10-25T06:11:24.735Z,13.56
2022-10-25T06:13:52.072Z,13.57
2022-10-25T06:16:20.706Z,13.60
2022-10-25T06:18:49.391Z,13.60
2022-10-25T06:21:18.453Z,13.52
2022-10-25T06:23:46.400Z,13.51
2022-10-25T06:26:15.654Z,13.47
2022-10-25T06:28:43.320Z,13.47
2022-10-25T06:31:12.297Z,13.50
2022-10-25T06:33:39.899Z,13.54
2022-10-25T06:36:13.174Z,13.27
2022-10-25T06:38:40.753Z,13.28
2022-10-25T06:41:11.204Z,13.45
2022-10-25T06:43:38.857Z,13.47
2022-10-25T06:46:07.229Z,13.43
2022-10-25T06:48:34.676Z,13.47
2022-10-25T06:51:02.987Z,13.58
2022-10-25T06:53:31.929Z,13.56
2022-10-25T06:56:04.724Z,13.29
2022-10-25T06:58:34.422Z,13.45
2022-10-25T07:01:03.400Z,13.38
2022-10-25T07:03:34.941Z,13.34
2022-10-25T07:06:03.321Z,13.37
2022-10-25T07:08:31.976Z,13.49
2022-10-25T07:10:59.575Z,13.75
2022-10-25T07:13:27.034Z,13.87
2022-10-25T07:15:54.485Z,13.99
2022-10-25T07:18:21.840Z,14.02
2022-10-25T07:20:50.449Z,13.94
2022-10-25T07:25:52.860Z,14.01
2022-10-25T07:28:20.245Z,14.41
2022-10-25T07:30:48.353Z,14.44
2022-10-25T07:33:16.447Z,14.59
2022-10-25T07:35:58.692Z,14.75
2022-10-25T07:38:33.245Z,14.57
2022-10-25T07:41:01.983Z,14.67
2022-10-25T07:43:30.121Z,14.98
2022-10-25T08:26:14.353Z,14.84
2022-10-25T08:28:41.688Z,14.94
2022-10-25T08:31:10.405Z,15.11
2022-10-25T08:33:37.952Z,15.01
2022-10-25T08:36:05.659Z,15.25
2022-10-25T08:38:33.049Z,15.02
2022-10-25T08:41:06.902Z,15.20
2022-10-25T08:43:50.932Z,15.36
2022-10-25T08:46:21.364Z,15.53
2022-10-25T08:48:52.428Z,15.43
2022-10-25T08:51:27.744Z,15.42
2022-10-25T09:28:25.437Z,16.11
2022-10-25T09:30:54.000Z,16.44
2022-10-25T09:33:28.219Z,16.10
2022-10-25T09:35:56.309Z,16.34
2022-10-25T09:38:29.174Z,16.18
2022-10-25T09:46:14.893Z,16.01
2022-10-25T09:48:49.309Z,15.78
2022-10-25T09:51:20.304Z,16.02
2022-10-25T09:53:48.049Z,16.16
2022-10-25T09:56:17.236Z,16.11
2022-10-25T09:58:47.017Z,16.17
2022-10-25T10:01:19.037Z,16.12
2022-10-25T10:03:52.293Z,15.85
2022-10-25T10:06:24.029Z,16.14
2022-10-25T10:08:52.867Z,16.07
2022-10-25T10:11:21.076Z,16.29
2022-10-25T10:13:49.953Z,16.68
2022-10-25T10:16:21.864Z,16.97
2022-10-25T10:18:50.694Z,17.28
2022-10-25T10:21:20.082Z,17.28
2022-10-25T10:23:53.354Z,17.24
2022-10-25T10:26:24.773Z,17.35
2022-10-25T10:29:07.767Z,16.76
2022-10-25T10:31:37.864Z,17.03
2022-10-25T10:34:08.343Z,17.07
2022-10-25T10:36:36.246Z,16.97
2022-10-25T10:39:21.035Z,17.33
2022-10-25T10:42:02.903Z,17.06
2022-10-25T10:44:34.217Z,16.81
2022-10-25T10:50:25.716Z,17.44
2022-10-25T10:52:59.795Z,17.55
2022-10-25T10:55:30.853Z,17.42
2022-10-25T10:58:03.732Z,17.38
2022-10-25T11:00:33.085Z,17.40
2022-10-25T11:03:00.715Z,17.23
2022-10-25T11:05:30.888Z,17.33
2022-10-25T11:08:00.009Z,17.04
2022-10-25T11:12:16.704Z,16.86
2022-10-25T11:14:44.081Z,16.60
2022-10-25T11:17:14.693Z,16.82
2022-10-25T11:20:01.810Z,16.93
2022-10-25T11:25:34.952Z,17.56
2022-10-25T11:28:15.581Z,17.27
2022-10-25T11:30:50.435Z,17.16
2022-10-25T11:33:28.119Z,17.23
2022-10-25T11:36:03.820Z,17.76
2022-10-25T11:38:41.658Z,18.16
2022-10-25T11:41:19.112Z,18.07
2022-10-25T11:43:57.223Z,17.84
2022-10-25T11:46:31.493Z,17.69
2022-10-25T11:49:13.749Z,17.69
2022-10-25T11:51:46.937Z,17.57
2022-10-25T11:54:21.351Z,16.74
2022-10-25T11:56:55.545Z,16.76
2022-10-25T11:59:26.260Z,16.93
2022-10-25T12:02:00.277Z,16.80
2022-10-25T12:04:45.747Z,16.76
2022-10-25T12:07:16.921Z,16.57
2022-10-25T12:09:52.237Z,16.78
2022-10-25T12:12:23.250Z,17.14
2022-10-25T12:14:55.629Z,17.14
2022-10-25T12:17:25.940Z,17.26
2022-10-25T12:19:55.603Z,17.06
2022-10-25T12:22:25.821Z,17.02
2022-10-25T12:24:57.585Z,17.21
2022-10-25T12:27:25.652Z,16.55
2022-10-25T12:29:58.121Z,17.00
2022-10-25T12:32:29.940Z,16.77
2022-10-25T12:34:58.698Z,16.53
2022-10-25T12:37:31.761Z,16.02
2022-10-25T12:39:59.246Z,16.44
2022-10-25T12:42:30.697Z,16.21
2022-10-25T12:45:12.064Z,16.27
2022-10-25T12:47:47.573Z,16.34
2022-10-25T12:50:41.720Z,16.53
2022-10-25T12:53:32.698Z,16.68
2022-10-25T12:56:03.357Z,17.07
2022-10-25T12:58:52.685Z,17.37
2022-10-25T13:01:34.977Z,17.62
2022-10-25T13:04:17.614Z,17.93
2022-10-25T13:06:45.665Z,17.79
2022-10-25T13:09:14.780Z,17.79
2022-10-25T13:11:44.153Z,17.63
2022-10-25T13:14:20.542Z,17.68
2022-10-25T13:16:49.280Z,17.65
2022-10-25T13:19:49.366Z,17.60
2022-10-25T13:22:39.456Z,17.53
2022-10-25T13:25:17.302Z,17.72
2022-10-25T13:28:17.905Z,17.94
2022-10-25T13:30:45.297Z,18.17
2022-10-25T13:33:33.266Z,17.92
2022-10-25T13:36:05.177Z,17.42
2022-10-25T13:38:39.011Z,17.13
2022-10-25T13:41:13.929Z,17.19
2022-10-25T13:44:01.377Z,17.23
2022-10-25T13:46:32.516Z,17.35
2022-10-25T13:49:02.355Z,17.52
2022-10-25T13:51:31.211Z,17.36
2022-10-25T13:54:02.670Z,17.30
2022-10-25T13:56:37.961Z,17.04
2022-10-25T13:59:05.454Z,16.93
2022-10-25T14:01:56.808Z,16.81
2022-10-25T14:04:44.005Z,16.33
2022-10-25T14:07:46.621Z,16.40
2022-10-25T14:10:24.145Z,16.64
2022-10-25T14:12:53.441Z,16.47
2022-10-25T14:15:31.425Z,16.72
2022-10-25T14:17:59.213Z,16.55
2022-10-25T14:20:29.690Z,16.42
2022-10-25T14:23:00.194Z,16.46
2022-10-25T14:25:34.084Z,16.10
2022-10-25T14:28:06.689Z,16.17
2022-10-25T14:30:38.049Z,16.50
2022-10-25T14:33:07.436Z,16.29
2022-10-25T14:35:39.153Z,16.53
2022-10-25T14:38:15.553Z,16.55
2022-10-25T14:40:42.909Z,16.85
2022-10-25T14:43:22.486Z,16.78
2022-10-25T14:45:57.017Z,16.74
2022-10-25T14:48:24.529Z,16.66
2022-10-25T14:50:53.781Z,16.79
2022-10-25T14:53:21.315Z,16.59
2022-10-25T14:55:53.628Z,16.76
2022-10-25T14:58:21.641Z,16.27
2022-10-25T15:00:54.302Z,16.10
2022-10-25T15:03:22.022Z,15.74
2022-10-25T15:05:49.479Z,15.95
2022-10-25T15:08:21.186Z,15.87
2022-10-25T15:10:51.233Z,15.79
2022-10-25T15:13:22.921Z,15.67
2022-10-25T15:15:51.834Z,15.94
2022-10-25T15:18:28.535Z,15.75
2022-10-25T15:21:06.479Z,15.59
2022-10-25T15:23:35.622Z,15.82
2022-10-25T15:26:26.998Z,15.67
2022-10-25T15:28:55.857Z,15.73
2022-10-25T15:31:24.994Z,15.89
2022-10-25T15:33:59.970Z,16.02
2022-10-25T15:36:28.913Z,16.18
2022-10-25T15:39:11.432Z,15.83
2022-10-25T15:41:40.189Z,15.92
2022-10-25T15:44:07.575Z,15.88
2022-10-25T15:46:37.794Z,15.72
2022-10-25T15:49:08.087Z,15.59
2022-10-25T15:51:37.717Z,15.50
2022-10-25T15:54:06.684Z,15.45
2022-10-25T15:56:34.101Z,15.44
2022-10-25T15:59:02.621Z,15.35
2022-10-25T16:01:30.374Z,15.15
2022-10-25T16:03:57.805Z,14.79
2022-10-25T16:06:26.888Z,14.81
2022-10-25T16:08:54.298Z,14.69
2022-10-25T16:11:22.957Z,14.47
2022-10-25T16:13:52.805Z,14.42
2022-10-25T16:16:39.413Z,14.13
2022-10-25T16:19:07.944Z,14.03
2022-10-25T16:21:35.304Z,13.72
2022-10-25T16:24:02.669Z,13.83
2022-10-25T16:26:35.205Z,13.74
2022-10-25T16:29:02.701Z,13.74
2022-10-25T16:31:30.072Z,13.72
2022-10-25T16:33:57.410Z,13.65
2022-10-25T16:36:24.797Z,13.57
2022-10-25T16:38:52.213Z,13.36
2022-10-25T16:41:24.912Z,13.27
2022-10-25T16:43:53.625Z,13.15
2022-10-25T16:46:21.045Z,13.11
2022-10-25T16:48:49.159Z,12.99
2022-10-25T16:51:18.112Z,13.01
2022-10-25T16:53:46.981Z,12.89
2022-10-25T16:56:14.979Z,12.87
2022-10-25T16:58:42.901Z,12.82
2022-10-25T17:01:21.981Z,12.64
2022-10-25T17:03:49.959Z,12.54
2022-10-25T17:06:39.764Z,12.37
2022-10-25T17:09:05.254Z,12.19
2022-10-25T17:11:32.589Z,12.30
2022-10-25T17:14:00.026Z,12.27
2022-10-25T17:16:28.677Z,12.25
2022-10-25T17:18:56.193Z,12.29
2022-10-25T17:21:23.767Z,12.28
2022-10-25T17:23:51.169Z,12.23
2022-10-25T17:26:18.576Z,12.14
2022-10-25T17:28:45.912Z,12.12
2022-10-25T17:31:15.696Z,12.05
2022-10-25T17:33:44.678Z,11.91
2022-10-25T17:36:13.866Z,11.85
2022-10-25T17:38:41.304Z,11.32
2022-10-25T17:41:10.545Z,11.57
2022-10-25T17:43:38.800Z,11.55
2022-10-25T17:46:10.256Z,11.51
2022-10-25T17:48:37.715Z,11.42
2022-10-25T17:51:08.289Z,11.26
2022-10-25T17:53:36.108Z,11.11
2022-10-25T17:56:10.933Z,11.14
2022-10-25T17:58:38.338Z,10.91
2022-10-25T18:01:06.256Z,10.88
2022-10-25T18:03:33.749Z,10.82
2022-10-25T18:06:01.413Z,10.63
2022-10-25T18:08:30.244Z,10.58
2022-10-25T18:10:57.679Z,10.65
2022-10-25T18:13:26.899Z,10.62
2022-10-25T18:15:54.401Z,10.72
2022-10-25T18:18:21.859Z,10.65
2022-10-25T18:20:51.518Z,10.67
2022-10-25T18:23:19.070Z,10.52
2022-10-25T18:25:52.771Z,10.46
2022-10-25T18:28:20.303Z,10.65
2022-10-25T18:30:51.978Z,10.75
2022-10-25T18:33:23.673Z,10.85
2022-10-25T18:35:58.054Z,11.08
2022-10-25T18:38:25.865Z,11.23
2022-10-25T18:40:55.022Z,11.27
2022-10-25T18:43:23.440Z,11.40
2022-10-25T18:45:51.782Z,11.58
2022-10-25T18:48:19.889Z,11.73
2022-10-25T18:50:48.787Z,11.77
2022-10-25T18:53:19.119Z,11.85
2022-10-25T18:55:48.689Z,11.87
2022-10-25T18:58:19.484Z,11.90
2022-10-25T19:00:49.407Z,11.99
2022-10-25T19:03:18.829Z,11.87
2022-10-25T19:05:48.323Z,11.89
2022-10-25T19:08:17.913Z,11.74
2022-10-25T19:10:47.696Z,11.72
2022-10-25T19:13:20.439Z,11.49
2022-10-25T19:15:50.415Z,11.47
2022-10-25T19:18:20.158Z,11.62
2022-10-25T19:20:49.691Z,11.58
2022-10-25T19:23:19.466Z,11.58
2022-10-25T19:25:49.099Z,11.55
2022-10-25T19:28:20.113Z,11.40
2022-10-25T19:30:49.744Z,11.36
2022-10-25T19:33:19.306Z,11.29
2022-10-25T19:35:48.898Z,11.17
2022-10-25T19:38:21.901Z,11.15
2022-10-25T19:40:54.185Z,11.13
2022-10-25T19:43:25.633Z,11.22
2022-10-25T19:45:58.766Z,11.32
2022-10-25T19:48:29.065Z,11.37
2022-10-25T19:50:58.694Z,11.51
2022-10-25T19:53:28.194Z,11.47
2022-10-25T19:56:01.087Z,11.49
2022-10-25T19:58:32.090Z,11.46
2022-10-25T20:01:07.135Z,11.44
2022-10-25T20:03:36.925Z,11.33
2022-10-25T20:06:09.281Z,11.48
2022-10-25T20:08:40.598Z,11.53
2022-10-25T20:11:11.662Z,11.56
2022-10-25T20:13:42.929Z,11.54
2022-10-25T20:16:17.375Z,11.47
2022-10-25T20:18:46.700Z,11.47
2022-10-25T20:21:17.253Z,11.44
2022-10-25T20:23:50.542Z,11.37
2022-10-25T20:26:22.120Z,11.30
2022-10-25T20:28:54.258Z,11.22
2022-10-25T20:31:24.541Z,11.29
2022-10-25T20:33:54.164Z,11.36
2022-10-25T20:36:23.753Z,11.37
2022-10-25T20:38:53.331Z,11.37
2022-10-25T20:41:23.834Z,11.37
2022-10-25T20:43:55.222Z,11.39
2022-10-25T20:46:25.030Z,11.26
2022-10-25T20:48:53.524Z,11.22
2022-10-25T20:51:21.286Z,11.28
2022-10-25T20:53:54.551Z,11.28
2022-10-25T20:56:22.619Z,11.32
2022-10-25T20:58:50.106Z,11.27
2022-10-25T21:01:19.452Z,11.25
2022-10-25T21:03:47.025Z,11.23
2022-10-25T21:06:14.517Z,11.16
2022-10-25T21:08:42.091Z,11.15
2022-10-25T21:11:12.685Z,11.15
2022-10-25T21:13:40.521Z,11.18
2022-10-25T21:16:08.597Z,11.20
2022-10-25T21:18:37.555Z,11.22
2022-10-25T21:21:06.883Z,11.09
2022-10-25T21:23:34.333Z,11.16
2022-10-25T21:26:02.878Z,11.16
2022-10-25T21:28:33.376Z,11.01
2022-10-25T21:31:01.697Z,11.03
2022-10-25T21:33:31.022Z,11.02
2022-10-25T21:36:05.054Z,10.88
2022-10-25T21:38:32.443Z,10.79
2022-10-25T21:41:07.380Z,10.68
2022-10-25T21:43:34.777Z,10.72
2022-10-25T21:46:05.146Z,10.69
2022-10-25T21:48:32.558Z,10.62
2022-10-25T21:50:59.878Z,10.57
2022-10-25T21:53:28.559Z,10.44
2022-10-25T21:56:07.096Z,10.56
2022-10-25T21:58:34.518Z,10.57
2022-10-25T22:01:01.879Z,10.55
2022-10-25T22:03:30.544Z,10.41
2022-10-25T22:05:58.180Z,10.29
2022-10-25T22:08:25.537Z,10.16
2022-10-25T22:13:31.657Z,9.97
2022-10-25T22:16:00.428Z,9.92
2022-10-25T22:18:28.149Z,9.78
2022-10-25T22:20:57.256Z,9.72
2022-10-25T22:23:26.305Z,9.58
2022-10-25T22:25:53.864Z,9.56
2022-10-25T22:28:22.570Z,9.55
2022-10-25T22:30:50.062Z,9.49
2022-10-25T22:33:17.435Z,9.44
2022-10-25T22:35:44.754Z,9.34
2022-10-25T22:38:12.093Z,9.29
2022-10-25T22:40:39.426Z,9.24
2022-10-25T22:43:06.757Z,9.08
2022-10-25T22:45:36.295Z,9.18
2022-10-25T22:48:03.667Z,8.99
2022-10-25T22:50:31.009Z,9.19
2022-10-25T22:52:58.351Z,9.23
2022-10-25T22:55:25.692Z,9.18
2022-10-25T22:57:54.210Z,8.93
2022-10-25T23:00:21.646Z,8.97
2022-10-25T23:02:50.566Z,8.92
2022-10-25T23:05:18.082Z,8.89
2022-10-25T23:07:45.425Z,8.85
2022-10-25T23:10:14.347Z,8.83
2022-10-25T23:12:41.729Z,8.75
2022-10-25T23:15:09.570Z,8.64
2022-10-25T23:17:36.948Z,8.64
2022-10-25T23:20:06.757Z,8.65
2022-10-25T23:22:34.193Z,8.64
2022-10-25T23:25:01.567Z,8.64
2022-10-25T23:27:29.060Z,8.73
2022-10-25T23:29:56.413Z,8.67
2022-10-25T23:32:23.797Z,8.66
2022-10-25T23:34:52.596Z,8.65
2022-10-25T23:37:23.721Z,8.63
2022-10-25T23:39:53.884Z,8.63
2022-10-25T23:42:21.212Z,8.68
2022-10-25T23:44:48.514Z,8.57
2022-10-25T23:47:15.845Z,8.61
2022-10-25T23:49:43.157Z,8.54
2022-10-25T23:52:10.490Z,8.70
2022-10-25T23:54:39.133Z,8.77
2022-10-25T23:57:06.468Z,8.77
2022-10-25T23:59:33.818Z,8.69
